sensor_id;sensor_type;location;lat;lon;timestamp;pressure;altitude;pressure_sealevel;temperature;humidity
38612;BME280;24368;52.156;20.788;2022-10-16T00:02:25;100546.80;;;13.90;94.67
38612;BME280;24368;52.156;20.788;2022-10-16T00:07:27;100544.35;;;13.92;94.74
38612;BME280;24368;52.156;20.788;2022-10-16T00:12:28;100544.02;;;13.95;94.69
38612;BME280;24368;52.156;20.788;2022-10-16T00:17:30;100545.44;;;13.94;94.77
38612;BME280;24368;52.156;20.788;2022-10-16T00:22:32;100540.36;;;13.95;94.50
38612;BME280;24368;52.156;20.788;2022-10-16T00:27:34;100543.49;;;13.95;94.78
38612;BME280;24368;52.156;20.788;2022-10-16T00:32:35;100548.25;;;13.99;94.21
38612;BME280;24368;52.156;20.788;2022-10-16T00:37:37;100555.77;;;14.02;93.89
38612;BME280;24368;52.156;20.788;2022-10-16T00:42:38;100562.74;;;14.01;93.65
38612;BME280;24368;52.156;20.788;2022-10-16T00:47:43;100557.99;;;14.01;94.29
38612;BME280;24368;52.156;20.788;2022-10-16T00:52:49;100559.56;;;14.04;93.90
38612;BME280;24368;52.156;20.788;2022-10-16T00:57:52;100555.73;;;14.06;93.55
38612;BME280;24368;52.156;20.788;2022-10-16T01:02:59;100551.48;;;14.10;93.02
38612;BME280;24368;52.156;20.788;2022-10-16T01:08:09;100556.75;;;14.10;92.99
38612;BME280;24368;52.156;20.788;2022-10-16T01:13:21;100563.95;;;14.06;92.83
38612;BME280;24368;52.156;20.788;2022-10-16T01:18:33;100567.45;;;14.08;91.89
38612;BME280;24368;52.156;20.788;2022-10-16T01:29:21;100582.04;;;14.12;91.02
38612;BME280;24368;52.156;20.788;2022-10-16T01:34:37;100588.58;;;14.11;90.75
38612;BME280;24368;52.156;20.788;2022-10-16T01:39:42;100589.34;;;14.03;91.60
38612;BME280;24368;52.156;20.788;2022-10-16T01:44:47;100584.44;;;13.97;91.80
38612;BME280;24368;52.156;20.788;2022-10-16T01:49:51;100584.95;;;13.94;91.85
38612;BME280;24368;52.156;20.788;2022-10-16T01:54:56;100578.39;;;13.94;91.84
38612;BME280;24368;52.156;20.788;2022-10-16T02:00:05;100572.95;;;13.97;91.59
38612;BME280;24368;52.156;20.788;2022-10-16T02:05:18;100575.35;;;13.99;90.92
38612;BME280;24368;52.156;20.788;2022-10-16T02:10:23;100578.95;;;13.95;91.12
38612;BME280;24368;52.156;20.788;2022-10-16T02:15:26;100571.92;;;13.86;92.42
38612;BME280;24368;52.156;20.788;2022-10-16T02:20:37;100572.58;;;13.83;93.12
38612;BME280;24368;52.156;20.788;2022-10-16T02:25:44;100567.56;;;13.86;91.77
38612;BME280;24368;52.156;20.788;2022-10-16T02:30:57;100567.38;;;13.89;91.38
38612;BME280;24368;52.156;20.788;2022-10-16T02:36:00;100570.45;;;13.86;91.82
38612;BME280;24368;52.156;20.788;2022-10-16T02:41:04;100579.89;;;13.82;91.35
38612;BME280;24368;52.156;20.788;2022-10-16T02:46:06;100582.81;;;13.80;91.32
38612;BME280;24368;52.156;20.788;2022-10-16T02:51:07;100585.96;;;13.82;91.19
38612;BME280;24368;52.156;20.788;2022-10-16T02:56:09;100586.07;;;13.82;91.67
38612;BME280;24368;52.156;20.788;2022-10-16T03:01:10;100591.98;;;13.78;91.63
38612;BME280;24368;52.156;20.788;2022-10-16T03:06:13;100595.27;;;13.78;91.73
38612;BME280;24368;52.156;20.788;2022-10-16T03:11:15;100602.98;;;13.72;92.16
38612;BME280;24368;52.156;20.788;2022-10-16T03:16:16;100599.98;;;13.68;92.47
38612;BME280;24368;52.156;20.788;2022-10-16T03:21:18;100599.36;;;13.68;92.37
38612;BME280;24368;52.156;20.788;2022-10-16T03:26:20;100607.30;;;13.71;92.38
38612;BME280;24368;52.156;20.788;2022-10-16T03:31:21;100613.80;;;13.70;92.46
38612;BME280;24368;52.156;20.788;2022-10-16T03:36:23;100614.89;;;13.65;93.00
38612;BME280;24368;52.156;20.788;2022-10-16T03:41:24;100617.34;;;13.57;93.49
38612;BME280;24368;52.156;20.788;2022-10-16T03:46:26;100628.36;;;13.50;94.19
38612;BME280;24368;52.156;20.788;2022-10-16T03:51:28;100623.05;;;13.47;94.50
38612;BME280;24368;52.156;20.788;2022-10-16T03:56:30;100619.46;;;13.48;94.55
38612;BME280;24368;52.156;20.788;2022-10-16T04:01:31;100629.95;;;13.48;94.96
38612;BME280;24368;52.156;20.788;2022-10-16T04:06:32;100626.17;;;13.46;95.26
38612;BME280;24368;52.156;20.788;2022-10-16T04:11:34;100623.94;;;13.40;95.81
38612;BME280;24368;52.156;20.788;2022-10-16T04:16:35;100618.84;;;13.35;96.44
38612;BME280;24368;52.156;20.788;2022-10-16T04:21:37;100638.35;;;13.31;96.89
38612;BME280;24368;52.156;20.788;2022-10-16T04:26:39;100645.12;;;13.28;97.38
38612;BME280;24368;52.156;20.788;2022-10-16T04:31:40;100652.81;;;13.23;97.77
38612;BME280;24368;52.156;20.788;2022-10-16T04:36:42;100654.15;;;13.13;98.53
38612;BME280;24368;52.156;20.788;2022-10-16T04:41:43;100651.11;;;13.05;99.24
38612;BME280;24368;52.156;20.788;2022-10-16T04:46:45;100652.41;;;12.94;99.95
38612;BME280;24368;52.156;20.788;2022-10-16T04:51:46;100654.94;;;12.83;100.00
38612;BME280;24368;52.156;20.788;2022-10-16T04:56:48;100660.77;;;12.75;100.00
38612;BME280;24368;52.156;20.788;2022-10-16T05:01:51;100662.99;;;12.64;100.00
38612;BME280;24368;52.156;20.788;2022-10-16T05:06:53;100670.77;;;12.54;100.00
38612;BME280;24368;52.156;20.788;2022-10-16T05:11:54;100677.58;;;12.44;100.00
38612;BME280;24368;52.156;20.788;2022-10-16T05:16:56;100681.00;;;12.40;100.00
38612;BME280;24368;52.156;20.788;2022-10-16T05:21:58;100679.73;;;12.38;100.00
38612;BME280;24368;52.156;20.788;2022-10-16T05:27:00;100673.95;;;12.35;100.00
38612;BME280;24368;52.156;20.788;2022-10-16T05:32:02;100670.52;;;12.30;100.00
38612;BME280;24368;52.156;20.788;2022-10-16T05:37:03;100674.04;;;12.25;100.00
38612;BME280;24368;52.156;20.788;2022-10-16T05:42:05;100680.73;;;12.24;100.00
38612;BME280;24368;52.156;20.788;2022-10-16T05:47:07;100687.71;;;12.24;100.00
38612;BME280;24368;52.156;20.788;2022-10-16T05:52:08;100690.36;;;12.24;100.00
38612;BME280;24368;52.156;20.788;2022-10-16T05:57:10;100695.47;;;12.30;100.00
38612;BME280;24368;52.156;20.788;2022-10-16T06:02:13;100693.11;;;12.34;100.00
38612;BME280;24368;52.156;20.788;2022-10-16T06:07:14;100698.08;;;12.35;100.00
38612;BME280;24368;52.156;20.788;2022-10-16T06:12:16;100705.45;;;12.39;100.00
38612;BME280;24368;52.156;20.788;2022-10-16T06:17:18;100708.44;;;12.44;100.00
38612;BME280;24368;52.156;20.788;2022-10-16T06:22:19;100714.52;;;12.58;100.00
38612;BME280;24368;52.156;20.788;2022-10-16T06:27:21;100716.98;;;12.71;100.00
38612;BME280;24368;52.156;20.788;2022-10-16T06:32:22;100712.71;;;12.80;100.00
38612;BME280;24368;52.156;20.788;2022-10-16T06:37:24;100723.07;;;12.81;100.00
38612;BME280;24368;52.156;20.788;2022-10-16T06:42:26;100725.50;;;12.83;100.00
38612;BME280;24368;52.156;20.788;2022-10-16T06:47:28;100736.66;;;12.88;100.00
38612;BME280;24368;52.156;20.788;2022-10-16T06:52:29;100736.60;;;13.00;100.00
38612;BME280;24368;52.156;20.788;2022-10-16T06:57:31;100737.84;;;13.11;100.00
38612;BME280;24368;52.156;20.788;2022-10-16T07:02:32;100745.91;;;13.15;100.00
38612;BME280;24368;52.156;20.788;2022-10-16T07:07:34;100748.05;;;13.15;100.00
38612;BME280;24368;52.156;20.788;2022-10-16T07:12:36;100749.70;;;13.17;100.00
38612;BME280;24368;52.156;20.788;2022-10-16T07:17:37;100738.26;;;13.24;100.00
38612;BME280;24368;52.156;20.788;2022-10-16T07:22:39;100729.75;;;13.37;100.00
38612;BME280;24368;52.156;20.788;2022-10-16T07:27:40;100727.95;;;13.53;100.00
38612;BME280;24368;52.156;20.788;2022-10-16T07:32:42;100751.02;;;13.64;100.00
38612;BME280;24368;52.156;20.788;2022-10-16T07:37:45;100757.81;;;13.79;100.00
38612;BME280;24368;52.156;20.788;2022-10-16T07:42:47;100747.83;;;13.94;100.00
38612;BME280;24368;52.156;20.788;2022-10-16T07:47:48;100747.41;;;14.12;99.97
38612;BME280;24368;52.156;20.788;2022-10-16T07:52:50;100741.39;;;14.33;99.66
38612;BME280;24368;52.156;20.788;2022-10-16T07:57:51;100752.49;;;14.56;98.62
38612;BME280;24368;52.156;20.788;2022-10-16T08:02:53;100751.89;;;14.74;97.42
38612;BME280;24368;52.156;20.788;2022-10-16T08:07:55;100768.66;;;14.89;96.51
38612;BME280;24368;52.156;20.788;2022-10-16T08:12:57;100774.55;;;15.02;95.94
38612;BME280;24368;52.156;20.788;2022-10-16T08:18:02;100773.52;;;15.28;95.05
38612;BME280;24368;52.156;20.788;2022-10-16T08:23:04;100780.64;;;15.38;94.28
38612;BME280;24368;52.156;20.788;2022-10-16T08:28:07;100787.22;;;15.56;94.53
38612;BME280;24368;52.156;20.788;2022-10-16T08:33:09;100794.10;;;15.78;92.84
38612;BME280;24368;52.156;20.788;2022-10-16T08:38:11;100795.77;;;15.85;91.90
38612;BME280;24368;52.156;20.788;2022-10-16T08:48:30;100785.98;;;15.88;91.86
38612;BME280;24368;52.156;20.788;2022-10-16T08:53:56;100788.77;;;15.95;92.18
38612;BME280;24368;52.156;20.788;2022-10-16T08:58:59;100802.38;;;16.14;91.82
38612;BME280;24368;52.156;20.788;2022-10-16T09:15:07;100806.82;;;16.35;90.42
38612;BME280;24368;52.156;20.788;2022-10-16T09:20:28;100791.36;;;16.40;90.15
38612;BME280;24368;52.156;20.788;2022-10-16T09:25:32;100798.15;;;16.53;89.73
38612;BME280;24368;52.156;20.788;2022-10-16T09:30:35;100800.16;;;16.55;88.96
38612;BME280;24368;52.156;20.788;2022-10-16T09:35:40;100801.80;;;16.55;88.66
38612;BME280;24368;52.156;20.788;2022-10-16T09:40:43;100798.17;;;16.54;88.65
38612;BME280;24368;52.156;20.788;2022-10-16T09:46:33;100800.08;;;16.60;88.75
38612;BME280;24368;52.156;20.788;2022-10-16T09:51:37;100797.86;;;16.73;88.16
38612;BME280;24368;52.156;20.788;2022-10-16T09:56:39;100801.07;;;16.95;87.19
38612;BME280;24368;52.156;20.788;2022-10-16T10:01:47;100799.63;;;17.10;86.23
38612;BME280;24368;52.156;20.788;2022-10-16T10:06:52;100804.23;;;17.18;86.30
38612;BME280;24368;52.156;20.788;2022-10-16T10:11:59;100807.03;;;17.31;85.78
38612;BME280;24368;52.156;20.788;2022-10-16T10:22:31;100795.67;;;17.59;82.79
38612;BME280;24368;52.156;20.788;2022-10-16T10:39:01;100798.00;;;17.35;84.18
38612;BME280;24368;52.156;20.788;2022-10-16T10:55:17;100784.73;;;17.51;84.20
38612;BME280;24368;52.156;20.788;2022-10-16T11:16:37;100784.14;;;18.45;80.35
38612;BME280;24368;52.156;20.788;2022-10-16T11:21:47;100782.25;;;19.16;77.44
38612;BME280;24368;52.156;20.788;2022-10-16T11:26:53;100783.20;;;18.41;80.80
38612;BME280;24368;52.156;20.788;2022-10-16T11:32:05;100787.17;;;18.90;79.86
38612;BME280;24368;52.156;20.788;2022-10-16T11:37:14;100797.08;;;19.94;73.86
38612;BME280;24368;52.156;20.788;2022-10-16T11:42:28;100796.79;;;19.52;74.63
38612;BME280;24368;52.156;20.788;2022-10-16T11:47:45;100786.73;;;19.86;74.86
38612;BME280;24368;52.156;20.788;2022-10-16T11:53:16;100773.59;;;20.32;71.92
38612;BME280;24368;52.156;20.788;2022-10-16T12:04:11;100784.20;;;19.73;74.38
38612;BME280;24368;52.156;20.788;2022-10-16T12:09:26;100781.28;;;19.17;75.74
38612;BME280;24368;52.156;20.788;2022-10-16T12:19:30;100795.16;;;19.04;76.97
38612;BME280;24368;52.156;20.788;2022-10-16T12:24:35;100790.96;;;19.27;76.76
38612;BME280;24368;52.156;20.788;2022-10-16T12:29:39;100792.16;;;19.49;75.19
38612;BME280;24368;52.156;20.788;2022-10-16T12:34:44;100792.06;;;19.47;75.96
38612;BME280;24368;52.156;20.788;2022-10-16T12:39:47;100797.58;;;19.01;78.36
38612;BME280;24368;52.156;20.788;2022-10-16T12:44:50;100791.99;;;19.21;77.91
38612;BME280;24368;52.156;20.788;2022-10-16T12:49:53;100795.73;;;19.66;76.43
38612;BME280;24368;52.156;20.788;2022-10-16T12:54:56;100803.46;;;19.17;77.26
38612;BME280;24368;52.156;20.788;2022-10-16T13:21:23;100815.23;;;18.76;81.06
38612;BME280;24368;52.156;20.788;2022-10-16T13:26:36;100818.13;;;18.64;82.29
38612;BME280;24368;52.156;20.788;2022-10-16T13:31:43;100821.10;;;18.65;82.71
38612;BME280;24368;52.156;20.788;2022-10-16T13:36:50;100831.52;;;18.70;81.98
38612;BME280;24368;52.156;20.788;2022-10-16T13:47:29;100824.14;;;18.59;83.17
38612;BME280;24368;52.156;20.788;2022-10-16T13:52:29;100825.42;;;18.53;84.06
38612;BME280;24368;52.156;20.788;2022-10-16T13:57:31;100828.18;;;18.48;84.33
38612;BME280;24368;52.156;20.788;2022-10-16T14:02:35;100822.52;;;18.47;84.93
38612;BME280;24368;52.156;20.788;2022-10-16T14:07:39;100821.02;;;18.44;85.65
38612;BME280;24368;52.156;20.788;2022-10-16T14:12:41;100826.61;;;18.43;85.80
38612;BME280;24368;52.156;20.788;2022-10-16T14:17:45;100831.27;;;18.36;86.35
38612;BME280;24368;52.156;20.788;2022-10-16T14:22:58;100840.23;;;18.32;86.72
38612;BME280;24368;52.156;20.788;2022-10-16T14:38:32;100847.12;;;18.18;88.29
38612;BME280;24368;52.156;20.788;2022-10-16T14:43:37;100845.58;;;18.22;88.09
38612;BME280;24368;52.156;20.788;2022-10-16T14:48:43;100847.85;;;18.22;88.09
38612;BME280;24368;52.156;20.788;2022-10-16T14:53:47;100849.63;;;18.22;88.53
38612;BME280;24368;52.156;20.788;2022-10-16T14:58:50;100848.08;;;18.15;89.13
38612;BME280;24368;52.156;20.788;2022-10-16T15:03:52;100854.34;;;18.11;89.78
38612;BME280;24368;52.156;20.788;2022-10-16T15:08:56;100852.15;;;18.04;90.58
38612;BME280;24368;52.156;20.788;2022-10-16T15:13:58;100864.77;;;18.03;90.68
38612;BME280;24368;52.156;20.788;2022-10-16T15:18:59;100871.65;;;18.06;90.75
38612;BME280;24368;52.156;20.788;2022-10-16T15:24:01;100874.65;;;18.06;91.07
38612;BME280;24368;52.156;20.788;2022-10-16T15:29:02;100877.86;;;18.02;91.33
38612;BME280;24368;52.156;20.788;2022-10-16T15:34:04;100872.89;;;17.95;91.75
38612;BME280;24368;52.156;20.788;2022-10-16T15:39:19;100870.12;;;17.90;92.18
38612;BME280;24368;52.156;20.788;2022-10-16T15:44:21;100880.71;;;17.87;92.30
38612;BME280;24368;52.156;20.788;2022-10-16T15:49:30;100883.20;;;17.89;92.27
38612;BME280;24368;52.156;20.788;2022-10-16T15:54:32;100890.22;;;17.92;92.26
38612;BME280;24368;52.156;20.788;2022-10-16T15:59:33;100896.81;;;17.89;92.48
38612;BME280;24368;52.156;20.788;2022-10-16T16:04:35;100901.88;;;17.82;92.88
38612;BME280;24368;52.156;20.788;2022-10-16T16:09:37;100907.17;;;17.78;93.25
38612;BME280;24368;52.156;20.788;2022-10-16T16:14:39;100918.34;;;17.77;93.59
38612;BME280;24368;52.156;20.788;2022-10-16T16:19:40;100920.90;;;17.77;93.58
38612;BME280;24368;52.156;20.788;2022-10-16T16:24:42;100922.45;;;17.72;93.95
38612;BME280;24368;52.156;20.788;2022-10-16T16:29:43;100923.55;;;17.67;94.26
38612;BME280;24368;52.156;20.788;2022-10-16T16:34:45;100929.20;;;17.60;94.72
38612;BME280;24368;52.156;20.788;2022-10-16T16:39:46;100931.42;;;17.56;95.01
38612;BME280;24368;52.156;20.788;2022-10-16T16:44:48;100939.76;;;17.52;95.40
38612;BME280;24368;52.156;20.788;2022-10-16T16:49:50;100945.19;;;17.47;95.66
38612;BME280;24368;52.156;20.788;2022-10-16T16:54:53;100950.45;;;17.42;96.02
38612;BME280;24368;52.156;20.788;2022-10-16T16:59:54;100956.54;;;17.35;96.45
38612;BME280;24368;52.156;20.788;2022-10-16T17:04:56;100954.99;;;17.27;96.86
38612;BME280;24368;52.156;20.788;2022-10-16T17:09:58;100963.75;;;17.23;97.39
38612;BME280;24368;52.156;20.788;2022-10-16T17:15:00;100972.86;;;17.21;97.59
38612;BME280;24368;52.156;20.788;2022-10-16T17:20:02;100979.52;;;17.16;97.92
38612;BME280;24368;52.156;20.788;2022-10-16T17:25:04;100990.44;;;17.11;98.28
38612;BME280;24368;52.156;20.788;2022-10-16T17:30:08;100992.80;;;17.09;98.30
38612;BME280;24368;52.156;20.788;2022-10-16T17:35:10;100997.50;;;17.02;98.71
38612;BME280;24368;52.156;20.788;2022-10-16T17:40:12;101001.11;;;16.94;99.31
38612;BME280;24368;52.156;20.788;2022-10-16T17:45:13;101004.70;;;16.91;99.70
38612;BME280;24368;52.156;20.788;2022-10-16T17:50:15;101012.83;;;16.88;99.88
38612;BME280;24368;52.156;20.788;2022-10-16T17:55:17;101021.47;;;16.89;99.90
38612;BME280;24368;52.156;20.788;2022-10-16T18:00:18;101026.40;;;16.89;99.92
38612;BME280;24368;52.156;20.788;2022-10-16T18:05:20;101031.61;;;16.81;100.00
38612;BME280;24368;52.156;20.788;2022-10-16T18:10:22;101036.51;;;16.77;100.00
38612;BME280;24368;52.156;20.788;2022-10-16T18:15:23;101038.91;;;16.78;100.00
38612;BME280;24368;52.156;20.788;2022-10-16T18:20:25;101035.98;;;16.76;100.00
38612;BME280;24368;52.156;20.788;2022-10-16T18:25:26;101035.19;;;16.75;100.00
38612;BME280;24368;52.156;20.788;2022-10-16T18:30:28;101042.09;;;16.74;100.00
38612;BME280;24368;52.156;20.788;2022-10-16T18:35:29;101049.05;;;16.67;100.00
38612;BME280;24368;52.156;20.788;2022-10-16T18:40:31;101043.75;;;16.61;100.00
38612;BME280;24368;52.156;20.788;2022-10-16T18:45:35;101051.73;;;16.55;100.00
38612;BME280;24368;52.156;20.788;2022-10-16T18:50:37;101054.85;;;16.53;100.00
38612;BME280;24368;52.156;20.788;2022-10-16T18:55:38;101056.59;;;16.45;100.00
38612;BME280;24368;52.156;20.788;2022-10-16T19:00:40;101057.33;;;16.38;100.00
38612;BME280;24368;52.156;20.788;2022-10-16T19:05:42;101062.73;;;16.33;100.00
38612;BME280;24368;52.156;20.788;2022-10-16T19:10:46;101071.44;;;16.30;100.00
38612;BME280;24368;52.156;20.788;2022-10-16T19:15:48;101083.35;;;16.27;100.00
38612;BME280;24368;52.156;20.788;2022-10-16T19:20:49;101094.16;;;16.26;100.00
38612;BME280;24368;52.156;20.788;2022-10-16T19:25:51;101104.23;;;16.25;100.00
38612;BME280;24368;52.156;20.788;2022-10-16T19:30:52;101101.84;;;16.19;100.00
38612;BME280;24368;52.156;20.788;2022-10-16T19:35:54;101113.48;;;16.14;100.00
38612;BME280;24368;52.156;20.788;2022-10-16T19:41:03;101115.14;;;16.16;100.00
38612;BME280;24368;52.156;20.788;2022-10-16T19:46:25;101119.61;;;16.13;100.00
38612;BME280;24368;52.156;20.788;2022-10-16T19:51:28;101119.96;;;16.08;100.00
38612;BME280;24368;52.156;20.788;2022-10-16T19:56:32;101129.73;;;16.05;100.00
38612;BME280;24368;52.156;20.788;2022-10-16T20:01:34;101139.27;;;16.03;100.00
38612;BME280;24368;52.156;20.788;2022-10-16T20:06:36;101141.95;;;16.01;100.00
38612;BME280;24368;52.156;20.788;2022-10-16T20:11:37;101145.50;;;15.95;100.00
38612;BME280;24368;52.156;20.788;2022-10-16T20:16:39;101153.55;;;15.94;100.00
38612;BME280;24368;52.156;20.788;2022-10-16T20:21:41;101157.16;;;15.95;100.00
38612;BME280;24368;52.156;20.788;2022-10-16T20:26:43;101160.25;;;15.96;100.00
38612;BME280;24368;52.156;20.788;2022-10-16T20:31:44;101162.73;;;15.88;100.00
38612;BME280;24368;52.156;20.788;2022-10-16T20:36:46;101168.64;;;15.83;100.00
38612;BME280;24368;52.156;20.788;2022-10-16T20:41:47;101183.56;;;15.88;100.00
38612;BME280;24368;52.156;20.788;2022-10-16T20:46:49;101191.48;;;15.97;100.00
38612;BME280;24368;52.156;20.788;2022-10-16T20:51:50;101198.95;;;15.93;100.00
38612;BME280;24368;52.156;20.788;2022-10-16T20:56:52;101199.67;;;15.89;100.00
38612;BME280;24368;52.156;20.788;2022-10-16T21:01:54;101201.02;;;15.92;100.00
38612;BME280;24368;52.156;20.788;2022-10-16T21:06:55;101205.67;;;15.90;100.00
38612;BME280;24368;52.156;20.788;2022-10-16T21:11:57;101198.58;;;15.92;100.00
38612;BME280;24368;52.156;20.788;2022-10-16T21:16:58;101198.73;;;15.88;100.00
38612;BME280;24368;52.156;20.788;2022-10-16T21:22:01;101198.76;;;15.79;100.00
38612;BME280;24368;52.156;20.788;2022-10-16T21:27:03;101200.79;;;15.75;100.00
38612;BME280;24368;52.156;20.788;2022-10-16T21:32:04;101210.52;;;15.75;100.00
38612;BME280;24368;52.156;20.788;2022-10-16T21:37:06;101215.92;;;15.73;100.00
38612;BME280;24368;52.156;20.788;2022-10-16T21:42:08;101221.80;;;15.64;100.00
38612;BME280;24368;52.156;20.788;2022-10-16T21:47:09;101230.36;;;15.59;100.00
38612;BME280;24368;52.156;20.788;2022-10-16T21:52:11;101235.65;;;15.56;100.00
38612;BME280;24368;52.156;20.788;2022-10-16T21:57:12;101238.42;;;15.57;100.00
38612;BME280;24368;52.156;20.788;2022-10-16T22:02:14;101229.61;;;15.55;100.00
38612;BME280;24368;52.156;20.788;2022-10-16T22:07:15;101232.38;;;15.45;100.00
38612;BME280;24368;52.156;20.788;2022-10-16T22:12:17;101232.73;;;15.38;100.00
38612;BME280;24368;52.156;20.788;2022-10-16T22:17:19;101243.15;;;15.36;100.00
38612;BME280;24368;52.156;20.788;2022-10-16T22:22:21;101245.96;;;15.25;100.00
38612;BME280;24368;52.156;20.788;2022-10-16T22:27:22;101248.92;;;15.25;100.00
38612;BME280;24368;52.156;20.788;2022-10-16T22:32:24;101252.98;;;15.25;100.00
38612;BME280;24368;52.156;20.788;2022-10-16T22:37:26;101260.95;;;15.20;100.00
38612;BME280;24368;52.156;20.788;2022-10-16T22:42:27;101264.73;;;15.15;100.00
38612;BME280;24368;52.156;20.788;2022-10-16T22:47:29;101271.70;;;15.08;100.00
38612;BME280;24368;52.156;20.788;2022-10-16T22:52:31;101277.19;;;15.15;100.00
38612;BME280;24368;52.156;20.788;2022-10-16T22:57:32;101283.96;;;15.03;100.00
38612;BME280;24368;52.156;20.788;2022-10-16T23:02:34;101283.95;;;14.98;100.00
38612;BME280;24368;52.156;20.788;2022-10-16T23:07:36;101288.05;;;14.85;100.00
38612;BME280;24368;52.156;20.788;2022-10-16T23:12:38;101291.30;;;14.78;100.00
38612;BME280;24368;52.156;20.788;2022-10-16T23:17:39;101287.61;;;14.86;100.00
38612;BME280;24368;52.156;20.788;2022-10-16T23:22:41;101293.09;;;14.83;100.00
38612;BME280;24368;52.156;20.788;2022-10-16T23:27:42;101293.55;;;14.83;100.00
38612;BME280;24368;52.156;20.788;2022-10-16T23:32:44;101303.31;;;14.68;100.00
38612;BME280;24368;52.156;20.788;2022-10-16T23:37:45;101311.52;;;14.59;100.00
38612;BME280;24368;52.156;20.788;2022-10-16T23:42:47;101323.03;;;14.56;100.00
38612;BME280;24368;52.156;20.788;2022-10-16T23:47:48;101332.83;;;14.50;100.00
38612;BME280;24368;52.156;20.788;2022-10-16T23:52:50;101339.42;;;14.50;100.00
38612;BME280;24368;52.156;20.788;2022-10-16T23:57:51;101346.58;;;14.49;100.00
